Time;durP1;ratioP1;P1;durP2;ratioP2;P2;SDS_P1;SDS_P2;PMS_P1;PMS_P2;Temp;Humidity;BMP_temperature;BMP_pressure;BME280_temperature;BME280_humidity;BME280_pressure;Samples;Min_cycle;Max_cycle;Signal;HPM_P1;HPM_P2
2023/01/25 00:00:16;;;;;;;17.03;9.90;;;;;;;;;;5035289;28;20214;-27
2023/01/25 00:03:05;;;;;;;15.60;9.10;;;;;;;;;;5035385;28;20328;-34
2023/01/25 00:05:42;;;;;;;18.73;10.33;;;;;;;;;;5035929;28;20199;-27
2023/01/25 00:08:23;;;;;;;15.80;10.00;;;;;;;;;;5035031;28;20210;-30
2023/01/25 00:10:55;;;;;;;19.50;9.50;;;;;;;;;;5035549;28;20206;-29
2023/01/25 00:13:28;;;;;;;17.07;9.40;;;;;;;;;;5035298;28;20229;-30
2023/01/25 00:16:15;;;;;;;16.70;10.07;;;;;;;;;;5034807;28;20262;-28
2023/01/25 00:19:01;;;;;;;18.43;9.10;;;;;;;;;;5035527;28;20211;-27
2023/01/25 00:21:42;;;;;;;14.63;9.90;;;;;;;;;;5017843;28;20284;-27
2023/01/25 00:24:16;;;;;;;16.80;10.07;;;;;;;;;;5034797;28;20233;-28
2023/01/25 00:26:48;;;;;;;18.10;9.20;;;;;;;;;;5035626;28;20210;-32
2023/01/25 00:29:25;;;;;;;17.87;10.73;;;;;;;;;;5034912;28;20221;-30
2023/01/25 00:32:13;;;;;;;16.43;10.43;;;;;;;;;;5035595;28;20596;-30
2023/01/25 00:35:03;;;;;;;17.77;9.53;;;;;;;;;;5035602;28;20230;-31
2023/01/25 00:37:50;;;;;;;12.27;9.00;;;;;;;;;;5034820;28;20270;-29
2023/01/25 00:40:35;;;;;;;18.40;9.80;;;;;;;;;;5034862;28;20215;-26
2023/01/25 00:43:14;;;;;;;17.80;11.93;;;;;;;;;;5034924;28;20222;-31
2023/01/25 00:46:00;;;;;;;19.07;11.00;;;;;;;;;;5035373;28;20277;-32
2023/01/25 00:48:38;;;;;;;17.17;11.17;;;;;;;;;;5034992;28;20210;-31
2023/01/25 00:51:20;;;;;;;16.73;10.07;;;;;;;;;;5034770;28;20234;-31
2023/01/25 00:54:01;;;;;;;14.37;9.70;;;;;;;;;;5034029;28;20249;-31
2023/01/25 00:56:37;;;;;;;17.07;11.47;;;;;;;;;;5034646;28;20326;-28
2023/01/25 00:59:11;;;;;;;16.27;9.87;;;;;;;;;;5033970;28;20222;-30
2023/01/25 01:01:46;;;;;;;16.00;11.80;;;;;;;;;;5033969;28;20227;-32
2023/01/25 01:04:23;;;;;;;13.10;9.10;;;;;;;;;;5034488;28;20229;-30
2023/01/25 01:06:58;;;;;;;16.80;10.03;;;;;;;;;;5033874;28;20228;-29
2023/01/25 01:09:29;;;;;;;17.03;9.73;;;;;;;;;;5033885;28;20216;-31
2023/01/25 01:12:15;;;;;;;13.57;8.57;;;;;;;;;;5034508;28;20213;-29
2023/01/25 01:14:54;;;;;;;17.97;10.67;;;;;;;;;;5033928;28;20222;-29
2023/01/25 01:17:31;;;;;;;14.70;8.30;;;;;;;;;;5034137;28;20706;-28
2023/01/25 01:20:13;;;;;;;14.70;8.70;;;;;;;;;;5033874;28;20206;-29
2023/01/25 01:22:56;;;;;;;14.53;8.83;;;;;;;;;;5034281;28;20222;-30
2023/01/25 01:25:28;;;;;;;16.77;9.30;;;;;;;;;;5033493;28;20289;-30
2023/01/25 01:28:07;;;;;;;16.60;10.17;;;;;;;;;;5435290;22;20210;-32
2023/01/25 01:30:45;;;;;;;17.07;9.50;;;;;;;;;;5075711;28;20678;-27
2023/01/25 01:33:31;;;;;;;13.83;8.50;;;;;;;;;;5074487;28;20232;-30
2023/01/25 01:36:07;;;;;;;13.00;8.83;;;;;;;;;;5073730;28;20224;-28
2023/01/25 01:38:39;;;;;;;16.33;9.37;;;;;;;;;;5073334;28;20181;-30
2023/01/25 01:41:16;;;;;;;12.17;7.90;;;;;;;;;;5073514;28;20207;-27
2023/01/25 01:43:56;;;;;;;14.87;8.77;;;;;;;;;;5073383;28;20260;-29
2023/01/25 01:46:36;;;;;;;15.93;9.03;;;;;;;;;;5073108;28;20197;-30
2023/01/25 01:49:23;;;;;;;17.83;9.83;;;;;;;;;;5073645;28;20273;-30
2023/01/25 01:51:55;;;;;;;12.63;8.33;;;;;;;;;;5073023;28;20201;-28
2023/01/25 01:54:29;;;;;;;17.57;8.57;;;;;;;;;;5072227;28;20312;-29
2023/01/25 01:57:05;;;;;;;16.97;9.00;;;;;;;;;;5073376;28;20235;-27
2023/01/25 01:59:45;;;;;;;15.63;9.00;;;;;;;;;;5072937;28;20216;-26
2023/01/25 02:02:28;;;;;;;15.67;8.97;;;;;;;;;;5072430;28;20205;-28
2023/01/25 02:05:08;;;;;;;13.07;9.10;;;;;;;;;;5072734;28;20288;-27
2023/01/25 02:07:42;;;;;;;16.13;9.30;;;;;;;;;;5072790;28;20208;-30
2023/01/25 02:10:20;;;;;;;11.90;9.40;;;;;;;;;;5072561;28;20209;-26
2023/01/25 02:13:06;;;;;;;16.37;9.93;;;;;;;;;;5070946;28;20208;-26
2023/01/25 02:15:42;;;;;;;14.80;9.33;;;;;;;;;;5071530;28;20225;-30
2023/01/25 02:18:20;;;;;;;16.40;10.00;;;;;;;;;;5072289;28;20206;-32
2023/01/25 02:20:51;;;;;;;13.83;8.87;;;;;;;;;;5072859;28;20220;-30
2023/01/25 02:23:27;;;;;;;13.40;8.47;;;;;;;;;;5072524;28;20710;-26
2023/01/25 02:26:12;;;;;;;16.13;8.30;;;;;;;;;;5073158;28;20217;-31
2023/01/25 02:28:46;;;;;;;13.13;8.10;;;;;;;;;;5073075;28;20217;-28
2023/01/25 02:31:23;;;;;;;15.77;8.63;;;;;;;;;;5072507;28;20263;-26
2023/01/25 02:34:09;;;;;;;16.47;9.23;;;;;;;;;;5073024;28;20714;-28
2023/01/25 02:36:43;;;;;;;14.93;8.67;;;;;;;;;;5073370;28;20229;-29
2023/01/25 02:39:22;;;;;;;13.87;7.97;;;;;;;;;;5072313;28;20235;-31
2023/01/25 02:42:02;;;;;;;14.07;7.83;;;;;;;;;;5072758;28;20229;-26
2023/01/25 02:44:37;;;;;;;15.33;8.90;;;;;;;;;;5071949;28;20232;-30
2023/01/25 02:47:12;;;;;;;12.57;8.70;;;;;;;;;;5072602;28;20263;-30
2023/01/25 02:49:53;;;;;;;16.23;9.13;;;;;;;;;;5071975;28;20230;-29
2023/01/25 02:52:25;;;;;;;16.87;9.77;;;;;;;;;;5072144;28;20448;-32
2023/01/25 02:55:06;;;;;;;16.37;8.57;;;;;;;;;;5071935;28;20229;-28
2023/01/25 02:57:38;;;;;;;12.97;8.47;;;;;;;;;;5072265;28;20228;-27
2023/01/25 03:00:16;;;;;;;14.53;8.00;;;;;;;;;;5071921;28;20185;-28
2023/01/25 03:02:51;;;;;;;20.37;9.50;;;;;;;;;;5072235;28;20209;-33
2023/01/25 03:05:26;;;;;;;14.40;8.97;;;;;;;;;;5072944;28;20185;-32
2023/01/25 03:08:16;;;;;;;15.80;8.77;;;;;;;;;;5072299;28;20216;-30
2023/01/25 03:10:52;;;;;;;14.00;8.40;;;;;;;;;;5054446;28;20212;-30
2023/01/25 03:13:30;;;;;;;14.20;8.20;;;;;;;;;;5072310;28;20294;-30
2023/01/25 03:16:09;;;;;;;18.83;8.50;;;;;;;;;;5072165;28;20225;-31
2023/01/25 03:18:46;;;;;;;16.07;8.23;;;;;;;;;;5072461;28;20212;-30
2023/01/25 03:21:24;;;;;;;16.03;8.43;;;;;;;;;;5072369;28;20288;-29
2023/01/25 03:24:11;;;;;;;15.13;8.23;;;;;;;;;;5071792;28;20304;-29
2023/01/25 03:29:37;;;;;;;14.13;7.00;;;;;;;;;;5071834;28;20216;-29
2023/01/25 03:32:19;;;;;;;16.57;8.37;;;;;;;;;;5074584;28;20204;-31
2023/01/25 03:35:00;;;;;;;14.70;8.80;;;;;;;;;;5075380;28;20252;-30
2023/01/25 03:37:42;;;;;;;13.53;7.90;;;;;;;;;;5075021;28;20215;-29
2023/01/25 03:40:28;;;;;;;15.37;7.40;;;;;;;;;;5076094;28;20324;-32
2023/01/25 03:43:09;;;;;;;12.20;7.60;;;;;;;;;;5075077;28;20225;-32
2023/01/25 03:45:53;;;;;;;12.43;8.10;;;;;;;;;;5074905;28;20209;-27
2023/01/25 03:48:28;;;;;;;12.27;8.13;;;;;;;;;;5075865;28;20224;-29
2023/01/25 03:51:08;;;;;;;17.00;9.23;;;;;;;;;;5075411;28;20354;-29
2023/01/25 03:53:48;;;;;;;15.73;7.80;;;;;;;;;;5056867;28;20229;-28
2023/01/25 03:56:29;;;;;;;12.47;7.50;;;;;;;;;;5075183;28;20225;-33
2023/01/25 03:59:02;;;;;;;12.17;7.70;;;;;;;;;;5075197;28;20205;-31
2023/01/25 04:01:35;;;;;;;13.70;8.13;;;;;;;;;;5074762;28;20244;-30
2023/01/25 04:04:10;;;;;;;13.33;7.97;;;;;;;;;;5075643;28;20233;-31
2023/01/25 04:06:42;;;;;;;14.33;7.77;;;;;;;;;;5075197;28;20204;-30
2023/01/25 04:09:13;;;;;;;14.87;8.23;;;;;;;;;;5074803;28;20297;-31
2023/01/25 04:11:45;;;;;;;12.13;7.20;;;;;;;;;;5075211;28;20688;-27
2023/01/25 04:14:22;;;;;;;15.77;8.10;;;;;;;;;;5074396;28;20320;-26
2023/01/25 04:17:01;;;;;;;12.77;7.30;;;;;;;;;;5074571;28;20225;-28
2023/01/25 04:19:39;;;;;;;11.63;7.00;;;;;;;;;;5075285;28;20387;-28
2023/01/25 04:22:16;;;;;;;12.40;7.77;;;;;;;;;;5074666;28;20235;-30
2023/01/25 04:24:47;;;;;;;15.33;7.23;;;;;;;;;;5074438;28;20225;-29
2023/01/25 04:27:35;;;;;;;14.30;8.23;;;;;;;;;;5074952;28;20201;-32
2023/01/25 04:30:11;;;;;;;14.10;8.20;;;;;;;;;;5074559;28;20221;-26
2023/01/25 04:32:47;;;;;;;15.70;7.77;;;;;;;;;;5074933;28;20213;-29
2023/01/25 04:35:19;;;;;;;11.97;7.47;;;;;;;;;;5074675;28;20220;-28
2023/01/25 04:37:59;;;;;;;12.13;7.07;;;;;;;;;;5074237;28;20201;-29
2023/01/25 04:40:35;;;;;;;12.83;7.83;;;;;;;;;;5074760;28;20193;-30
2023/01/25 04:43:11;;;;;;;12.97;7.17;;;;;;;;;;5074803;28;20231;-32
2023/01/25 04:45:51;;;;;;;11.53;7.57;;;;;;;;;;5074983;28;20224;-30
2023/01/25 04:48:36;;;;;;;12.23;7.43;;;;;;;;;;5075155;28;20205;-29
2023/01/25 04:51:23;;;;;;;15.70;7.90;;;;;;;;;;5075907;28;20213;-30
2023/01/25 04:54:01;;;;;;;13.63;8.07;;;;;;;;;;5074138;28;20233;-28
2023/01/25 04:56:36;;;;;;;12.10;6.67;;;;;;;;;;5075334;28;20786;-30
2023/01/25 04:59:10;;;;;;;10.97;6.57;;;;;;;;;;5056409;28;20209;-26
2023/01/25 05:01:43;;;;;;;14.53;7.60;;;;;;;;;;5074813;28;20215;-28
2023/01/25 05:04:32;;;;;;;12.13;6.97;;;;;;;;;;5074152;28;20316;-29
2023/01/25 05:07:09;;;;;;;12.47;6.93;;;;;;;;;;5074287;28;20239;-27
2023/01/25 05:09:46;;;;;;;12.03;6.90;;;;;;;;;;5073795;28;20288;-31
2023/01/25 05:12:23;;;;;;;12.10;6.97;;;;;;;;;;5074598;28;20209;-25
2023/01/25 05:15:07;;;;;;;10.00;6.20;;;;;;;;;;5072879;28;20221;-27
2023/01/25 05:17:58;;;;;;;10.73;6.80;;;;;;;;;;5074584;28;20197;-28
2023/01/25 05:20:33;;;;;;;10.87;6.53;;;;;;;;;;5074385;28;20394;-32
2023/01/25 05:23:07;;;;;;;16.13;7.27;;;;;;;;;;5073917;28;20257;-27
2023/01/25 05:28:30;;;;;;;11.80;6.80;;;;;;;;;;5074527;28;20189;-28
2023/01/25 05:31:11;;;;;;;15.37;7.70;;;;;;;;;;5073600;28;20209;-29
2023/01/25 05:33:47;;;;;;;11.03;6.53;;;;;;;;;;5074114;28;20229;-25
2023/01/25 05:36:30;;;;;;;14.50;6.90;;;;;;;;;;5074407;28;20220;-26
2023/01/25 05:39:02;;;;;;;11.93;6.60;;;;;;;;;;5073655;28;20221;-27
2023/01/25 05:41:37;;;;;;;14.33;7.27;;;;;;;;;;5073851;28;20590;-30
2023/01/25 05:44:20;;;;;;;13.03;7.67;;;;;;;;;;5072720;28;20225;-28
2023/01/25 05:46:58;;;;;;;12.10;7.37;;;;;;;;;;5073481;28;20204;-25
2023/01/25 05:49:34;;;;;;;11.13;7.43;;;;;;;;;;5073846;28;20297;-28
2023/01/25 05:52:22;;;;;;;11.90;7.30;;;;;;;;;;5054685;28;20205;-30
2023/01/25 05:54:52;;;;;;;14.10;8.00;;;;;;;;;;5073049;28;20229;-28
2023/01/25 05:57:30;;;;;;;12.83;7.83;;;;;;;;;;5073452;28;20224;-29
2023/01/25 06:00:11;;;;;;;13.23;7.10;;;;;;;;;;5073199;28;20213;-32
2023/01/25 06:02:48;;;;;;;11.30;6.50;;;;;;;;;;5072995;28;20217;-32
2023/01/25 06:05:23;;;;;;;11.50;7.40;;;;;;;;;;5073051;28;20201;-28
2023/01/25 06:08:04;;;;;;;14.03;7.67;;;;;;;;;;5073262;28;20207;-29
2023/01/25 06:10:40;;;;;;;12.50;8.00;;;;;;;;;;5072736;28;20215;-31
2023/01/25 06:16:26;;;;;;;11.57;7.03;;;;;;;;;;5072795;28;20212;-28
2023/01/25 06:22:23;;;;;;;14.50;8.20;;;;;;;;;;5073092;28;20165;-32
2023/01/25 06:24:59;;;;;;;11.90;7.63;;;;;;;;;;5072599;28;20236;-27
2023/01/25 06:27:40;;;;;;;11.63;6.93;;;;;;;;;;5072994;28;20211;-28
2023/01/25 06:30:17;;;;;;;13.00;7.00;;;;;;;;;;5071480;28;20223;-28
2023/01/25 06:32:58;;;;;;;13.50;7.30;;;;;;;;;;5072305;28;20228;-31
2023/01/25 06:35:30;;;;;;;14.53;8.17;;;;;;;;;;5072778;28;20209;-30
2023/01/25 06:38:09;;;;;;;11.97;6.40;;;;;;;;;;5072568;28;20186;-31
2023/01/25 06:40:48;;;;;;;11.97;7.53;;;;;;;;;;5070785;28;20213;-26
2023/01/25 06:43:19;;;;;;;11.43;7.33;;;;;;;;;;5072247;28;20245;-31
2023/01/25 06:45:52;;;;;;;14.07;7.37;;;;;;;;;;5072249;28;20215;-30
2023/01/25 06:48:26;;;;;;;14.63;8.50;;;;;;;;;;5072429;28;20212;-31
2023/01/25 06:51:08;;;;;;;13.20;7.73;;;;;;;;;;5072164;28;20242;-24
2023/01/25 06:56:52;;;;;;;15.33;9.33;;;;;;;;;;5071535;28;20580;-30
2023/01/25 06:59:33;;;;;;;15.30;8.83;;;;;;;;;;5069928;28;20209;-29
2023/01/25 07:02:25;;;;;;;13.07;8.03;;;;;;;;;;5072600;28;20209;-25
2023/01/25 07:05:06;;;;;;;15.77;8.13;;;;;;;;;;5072930;28;20645;-28
2023/01/25 07:07:36;;;;;;;13.97;7.53;;;;;;;;;;5074348;28;20209;-28
2023/01/25 07:10:12;;;;;;;17.23;8.90;;;;;;;;;;5077060;28;20213;-31
2023/01/25 07:12:47;;;;;;;13.70;7.93;;;;;;;;;;5076138;28;20265;-29
2023/01/25 07:15:28;;;;;;;14.23;8.20;;;;;;;;;;5076177;28;20219;-28
2023/01/25 07:18:00;;;;;;;15.57;8.47;;;;;;;;;;5075966;28;20251;-29
2023/01/25 07:20:28;;;;;;;14.10;7.90;;;;;;;;;;5075101;28;20190;-26
2023/01/25 07:22:57;;;;;;;16.37;8.23;;;;;;;;;;5075820;28;20229;-29
2023/01/25 07:25:25;;;;;;;13.97;8.43;;;;;;;;;;5074581;28;20259;-25
2023/01/25 07:27:57;;;;;;;13.53;8.33;;;;;;;;;;5076086;28;20276;-33
2023/01/25 07:30:29;;;;;;;14.73;8.20;;;;;;;;;;5074465;28;20237;-27
2023/01/25 07:33:02;;;;;;;12.80;8.10;;;;;;;;;;5075574;28;20320;-28
2023/01/25 07:35:34;;;;;;;13.33;8.10;;;;;;;;;;5075725;28;20209;-30
2023/01/25 07:38:04;;;;;;;13.67;8.07;;;;;;;;;;5075003;28;20229;-29
2023/01/25 07:40:51;;;;;;;12.57;7.90;;;;;;;;;;5074735;28;20296;-29
2023/01/25 07:43:28;;;;;;;10.90;6.33;;;;;;;;;;5075448;28;20244;-29
2023/01/25 07:46:02;;;;;;;13.07;6.87;;;;;;;;;;5075618;28;20221;-27
2023/01/25 07:48:35;;;;;;;11.17;7.43;;;;;;;;;;5076241;28;20190;-31
2023/01/25 07:51:21;;;;;;;12.37;7.07;;;;;;;;;;5075937;28;20205;-28
2023/01/25 07:54:02;;;;;;;10.87;6.83;;;;;;;;;;5075507;28;20233;-31
2023/01/25 07:56:43;;;;;;;17.77;8.47;;;;;;;;;;5075945;28;20225;-29
2023/01/25 07:59:16;;;;;;;12.70;7.47;;;;;;;;;;5076484;28;20235;-28
2023/01/25 08:01:50;;;;;;;15.27;7.67;;;;;;;;;;5076611;28;20292;-30
2023/01/25 08:04:24;;;;;;;15.07;8.13;;;;;;;;;;5667571;22;20237;-30
2023/01/25 08:07:10;;;;;;;15.87;8.30;;;;;;;;;;5057414;28;20209;-30
2023/01/25 08:09:50;;;;;;;14.40;7.60;;;;;;;;;;5599555;22;20206;-28
2023/01/25 08:12:20;;;;;;;15.17;7.83;;;;;;;;;;5057269;28;20206;-31
2023/01/25 08:14:55;;;;;;;14.93;8.30;;;;;;;;;;5054976;28;20236;-32
2023/01/25 08:17:30;;;;;;;13.93;8.13;;;;;;;;;;5055087;28;20216;-30
2023/01/25 08:20:01;;;;;;;18.10;7.93;;;;;;;;;;5056171;28;20216;-30
2023/01/25 08:22:37;;;;;;;13.43;8.17;;;;;;;;;;5055941;28;20225;-32
2023/01/25 08:25:11;;;;;;;15.03;8.33;;;;;;;;;;5054871;28;20194;-28
2023/01/25 08:27:51;;;;;;;15.77;8.63;;;;;;;;;;5037535;28;20201;-31
2023/01/25 08:30:23;;;;;;;15.93;9.20;;;;;;;;;;5054252;28;20317;-31
2023/01/25 08:32:52;;;;;;;14.73;7.97;;;;;;;;;;5054988;28;20248;-30
2023/01/25 08:35:21;;;;;;;16.00;8.10;;;;;;;;;;5055083;28;20210;-29
2023/01/25 08:37:50;;;;;;;14.23;7.60;;;;;;;;;;5054316;28;20601;-32
2023/01/25 08:40:33;;;;;;;11.67;7.63;;;;;;;;;;5054587;28;20244;-27
2023/01/25 08:43:05;;;;;;;15.27;8.10;;;;;;;;;;5055025;28;20581;-33
2023/01/25 08:46:09;;;;;;;16.73;8.00;;;;;;;;;;5054523;28;20194;-32
2023/01/25 08:51:52;;;;;;;14.37;7.60;;;;;;;;;;5054112;28;20171;-33
2023/01/25 08:57:41;;;;;;;14.13;8.27;;;;;;;;;;5053572;28;20573;-30
2023/01/25 09:00:15;;;;;;;16.93;8.53;;;;;;;;;;5052804;28;20264;-28
2023/01/25 09:02:53;;;;;;;13.57;8.07;;;;;;;;;;5052225;28;20236;-30
2023/01/25 09:05:21;;;;;;;12.63;8.23;;;;;;;;;;5052355;28;20180;-28
2023/01/25 09:07:53;;;;;;;14.50;8.23;;;;;;;;;;5051386;28;20229;-31
2023/01/25 09:10:22;;;;;;;13.60;8.13;;;;;;;;;;5052615;28;20222;-29
2023/01/25 09:12:59;;;;;;;15.80;9.17;;;;;;;;;;5054250;28;20217;-30
2023/01/25 09:15:30;;;;;;;17.13;9.10;;;;;;;;;;5053637;28;20217;-34
2023/01/25 09:18:06;;;;;;;13.83;8.07;;;;;;;;;;5054065;28;20225;-31
2023/01/25 09:20:39;;;;;;;14.60;8.93;;;;;;;;;;5054490;28;20209;-33
2023/01/25 09:23:27;;;;;;;14.80;7.90;;;;;;;;;;5054163;28;20225;-27
2023/01/25 09:29:03;;;;;;;15.13;7.93;;;;;;;;;;5052399;28;20169;-30
2023/01/25 09:31:31;;;;;;;18.53;8.30;;;;;;;;;;5053204;28;20625;-29
2023/01/25 09:34:08;;;;;;;17.00;8.67;;;;;;;;;;5052789;28;20225;-29
2023/01/25 09:36:36;;;;;;;16.07;9.83;;;;;;;;;;5051996;28;20205;-30
2023/01/25 09:39:08;;;;;;;17.70;10.63;;;;;;;;;;5052660;28;20206;-30
2023/01/25 09:42:02;;;;;;;13.30;8.03;;;;;;;;;;5053860;28;20186;-31
2023/01/25 09:44:54;;;;;;;14.30;8.07;;;;;;;;;;5038586;28;20335;-32
2023/01/25 09:47:28;;;;;;;20.50;9.13;;;;;;;;;;5053255;28;20209;-30
2023/01/25 09:50:22;;;;;;;16.27;9.20;;;;;;;;;;5053657;28;20213;-30
2023/01/25 09:55:35;;;;;;;18.53;9.73;;;;;;;;;;5296850;23;20240;-28
2023/01/25 09:58:10;;;;;;;15.73;8.60;;;;;;;;;;5073585;28;20248;-30
2023/01/25 10:00:42;;;;;;;15.43;7.40;;;;;;;;;;5073170;28;20216;-27
2023/01/25 10:03:21;;;;;;;15.77;8.80;;;;;;;;;;5072999;28;20526;-31
2023/01/25 10:06:09;;;;;;;13.63;7.53;;;;;;;;;;5073419;28;20232;-32
2023/01/25 10:08:43;;;;;;;14.83;7.67;;;;;;;;;;5072797;28;20209;-29
2023/01/25 10:11:21;;;;;;;18.07;9.20;;;;;;;;;;5073021;28;20267;-31
2023/01/25 10:14:05;;;;;;;15.43;8.87;;;;;;;;;;5072741;28;20263;-32
2023/01/25 10:16:40;;;;;;;17.90;9.13;;;;;;;;;;5072719;28;20209;-32
2023/01/25 10:19:19;;;;;;;18.87;9.63;;;;;;;;;;5073628;28;20292;-30
2023/01/25 10:22:07;;;;;;;16.33;9.77;;;;;;;;;;5073384;28;20185;-33
2023/01/25 10:27:46;;;;;;;19.00;10.77;;;;;;;;;;5072744;28;20177;-29
2023/01/25 10:30:29;;;;;;;16.13;9.40;;;;;;;;;;5072590;28;20648;-29
2023/01/25 10:33:14;;;;;;;18.20;10.27;;;;;;;;;;5072706;28;20248;-32
2023/01/25 10:35:51;;;;;;;13.00;7.53;;;;;;;;;;5073505;28;20198;-30
2023/01/25 10:38:32;;;;;;;14.73;8.20;;;;;;;;;;5072744;28;20209;-33
2023/01/25 10:41:03;;;;;;;14.63;7.80;;;;;;;;;;5077563;28;20189;-30
2023/01/25 10:43:32;;;;;;;14.83;8.83;;;;;;;;;;5078720;28;20232;-31
2023/01/25 10:46:24;;;;;;;17.07;9.93;;;;;;;;;;5078525;28;20209;-31
2023/01/25 10:48:51;;;;;;;16.60;8.73;;;;;;;;;;5078650;28;20209;-29
2023/01/25 10:51:49;;;;;;;15.43;8.87;;;;;;;;;;5079799;28;20227;-28
2023/01/25 10:54:22;;;;;;;15.90;8.60;;;;;;;;;;5078319;28;20241;-31
2023/01/25 10:56:56;;;;;;;14.50;8.40;;;;;;;;;;5079506;28;20205;-26
2023/01/25 10:59:29;;;;;;;16.33;9.47;;;;;;;;;;5079100;28;20204;-31
2023/01/25 11:02:09;;;;;;;17.50;8.27;;;;;;;;;;5079314;28;20230;-33
2023/01/25 11:04:46;;;;;;;16.47;8.70;;;;;;;;;;5079525;28;20221;-29
2023/01/25 11:07:27;;;;;;;10.87;7.03;;;;;;;;;;5078218;28;20216;-30
2023/01/25 11:10:01;;;;;;;14.90;8.10;;;;;;;;;;5078781;28;20223;-30
2023/01/25 11:12:35;;;;;;;15.50;9.50;;;;;;;;;;5078852;28;20201;-30
2023/01/25 11:15:25;;;;;;;15.30;8.67;;;;;;;;;;5079203;28;20622;-26
2023/01/25 11:18:06;;;;;;;16.17;8.17;;;;;;;;;;5079282;28;20232;-29
2023/01/25 11:20:39;;;;;;;13.37;7.87;;;;;;;;;;5079452;28;20209;-31
2023/01/25 11:23:20;;;;;;;14.47;8.33;;;;;;;;;;5078868;28;20722;-34
2023/01/25 11:26:00;;;;;;;15.33;8.00;;;;;;;;;;5079034;28;20212;-30
2023/01/25 11:28:51;;;;;;;14.93;8.93;;;;;;;;;;5080430;28;20189;-30
2023/01/25 11:31:30;;;;;;;15.30;8.43;;;;;;;;;;5307147;22;20233;-30
2023/01/25 11:34:03;;;;;;;14.23;8.70;;;;;;;;;;5060378;28;20283;-30
2023/01/25 11:36:42;;;;;;;18.27;9.13;;;;;;;;;;5060656;28;20209;-30
2023/01/25 11:39:33;;;;;;;13.97;6.60;;;;;;;;;;5058626;28;20225;-29
2023/01/25 11:42:10;;;;;;;25.80;8.27;;;;;;;;;;5058940;28;20206;-31
2023/01/25 11:44:52;;;;;;;8.80;5.07;;;;;;;;;;5057905;28;20230;-30
2023/01/25 11:47:34;;;;;;;17.47;9.27;;;;;;;;;;5058361;28;20205;-30
2023/01/25 11:50:17;;;;;;;16.43;8.13;;;;;;;;;;5059125;28;20216;-28
2023/01/25 11:53:00;;;;;;;15.23;8.33;;;;;;;;;;5054558;28;20206;-30
2023/01/25 11:55:34;;;;;;;16.67;9.40;;;;;;;;;;5055519;28;20221;-28
2023/01/25 11:58:25;;;;;;;17.23;9.43;;;;;;;;;;5055359;28;20233;-29
2023/01/25 12:01:03;;;;;;;17.87;9.33;;;;;;;;;;5054678;28;20206;-28
2023/01/25 12:04:01;;;;;;;15.40;8.93;;;;;;;;;;5055852;28;20236;-26
2023/01/25 12:06:35;;;;;;;15.43;8.50;;;;;;;;;;5021618;28;20224;-30
2023/01/25 12:09:13;;;;;;;16.90;9.27;;;;;;;;;;5055503;28;20223;-29
2023/01/25 12:11:58;;;;;;;16.13;8.47;;;;;;;;;;5055249;28;20564;-27
2023/01/25 12:14:36;;;;;;;12.57;8.50;;;;;;;;;;5054769;28;20233;-29
2023/01/25 12:17:19;;;;;;;14.07;8.30;;;;;;;;;;5055104;28;20226;-28
2023/01/25 12:20:01;;;;;;;18.03;9.13;;;;;;;;;;5055439;28;20225;-27
2023/01/25 12:22:42;;;;;;;14.20;8.77;;;;;;;;;;5055053;28;20210;-32
2023/01/25 12:25:19;;;;;;;15.63;7.63;;;;;;;;;;5055246;28;20214;-27
2023/01/25 12:28:01;;;;;;;16.73;9.67;;;;;;;;;;5055962;28;20190;-32
2023/01/25 12:30:42;;;;;;;22.37;10.07;;;;;;;;;;5054773;28;20595;-28
2023/01/25 12:33:16;;;;;;;18.27;9.77;;;;;;;;;;5055228;28;20241;-29
2023/01/25 12:35:52;;;;;;;18.20;10.00;;;;;;;;;;5055622;28;20298;-29
2023/01/25 12:38:27;;;;;;;21.80;11.30;;;;;;;;;;5055421;28;20245;-29
2023/01/25 12:41:00;;;;;;;14.43;8.53;;;;;;;;;;5054325;28;20217;-26
2023/01/25 12:43:31;;;;;;;18.17;8.70;;;;;;;;;;5054853;28;20226;-31
2023/01/25 12:46:05;;;;;;;16.93;8.57;;;;;;;;;;5052503;28;20238;-30
2023/01/25 12:48:40;;;;;;;16.63;8.27;;;;;;;;;;5054703;28;20648;-33
2023/01/25 12:51:15;;;;;;;15.47;8.60;;;;;;;;;;5056054;28;20205;-30
2023/01/25 12:53:45;;;;;;;14.97;8.17;;;;;;;;;;5054269;28;20222;-32
2023/01/25 12:56:28;;;;;;;13.70;6.40;;;;;;;;;;5054093;28;20212;-32
2023/01/25 12:59:02;;;;;;;15.30;8.20;;;;;;;;;;5054149;28;20210;-29
2023/01/25 13:01:34;;;;;;;16.73;8.03;;;;;;;;;;5053378;28;20216;-29
2023/01/25 13:04:06;;;;;;;14.13;8.67;;;;;;;;;;5052395;28;20696;-29
2023/01/25 13:06:41;;;;;;;12.70;7.30;;;;;;;;;;5053486;28;20277;-29
2023/01/25 13:09:13;;;;;;;15.57;8.47;;;;;;;;;;5052699;28;20201;-26
2023/01/25 13:11:42;;;;;;;17.83;9.47;;;;;;;;;;5053661;28;20690;-30
2023/01/25 13:14:27;;;;;;;13.47;7.60;;;;;;;;;;5052609;28;20245;-31
2023/01/25 13:16:57;;;;;;;15.27;8.20;;;;;;;;;;5053111;28;20224;-31
2023/01/25 13:19:41;;;;;;;22.90;9.30;;;;;;;;;;5053853;28;20406;-30
2023/01/25 13:22:10;;;;;;;18.83;8.57;;;;;;;;;;5052868;28;20206;-28
2023/01/25 13:24:53;;;;;;;17.90;8.23;;;;;;;;;;5053612;28;20297;-31
2023/01/25 13:27:27;;;;;;;15.10;8.67;;;;;;;;;;5052180;28;20213;-32
2023/01/25 13:30:02;;;;;;;18.20;8.47;;;;;;;;;;5051212;28;20196;-26
2023/01/25 13:33:03;;;;;;;21.33;9.03;;;;;;;;;;5052103;28;20229;-29
2023/01/25 13:35:33;;;;;;;16.53;9.23;;;;;;;;;;5052295;28;20205;-32
2023/01/25 13:38:05;;;;;;;15.47;8.10;;;;;;;;;;5050941;28;20651;-30
2023/01/25 13:40:34;;;;;;;8.00;4.63;;;;;;;;;;5051700;28;20206;-32
2023/01/25 13:43:02;;;;;;;14.17;7.87;;;;;;;;;;5051781;28;20234;-30
2023/01/25 13:45:30;;;;;;;12.33;6.57;;;;;;;;;;5051033;28;20209;-28
2023/01/25 13:48:03;;;;;;;14.13;7.03;;;;;;;;;;5052428;28;20249;-31
2023/01/25 13:50:35;;;;;;;9.13;4.30;;;;;;;;;;5051863;28;20751;-28
2023/01/25 13:53:03;;;;;;;14.10;7.60;;;;;;;;;;5052056;28;20222;-26
2023/01/25 13:55:45;;;;;;;12.77;7.97;;;;;;;;;;5052683;28;20208;-29
2023/01/25 13:58:29;;;;;;;12.27;6.27;;;;;;;;;;5054085;28;20745;-31
2023/01/25 14:01:02;;;;;;;13.33;8.50;;;;;;;;;;5052237;28;20206;-31
2023/01/25 14:03:31;;;;;;;15.27;8.27;;;;;;;;;;5052235;28;20229;-27
2023/01/25 14:06:01;;;;;;;14.13;6.97;;;;;;;;;;5052723;28;20206;-29
2023/01/25 14:08:28;;;;;;;15.60;8.37;;;;;;;;;;5050177;28;20208;-28
2023/01/25 14:10:56;;;;;;;12.00;7.47;;;;;;;;;;5051121;28;20292;-30
2023/01/25 14:13:23;;;;;;;11.80;6.70;;;;;;;;;;5051502;28;20236;-30
2023/01/25 14:15:55;;;;;;;14.77;7.70;;;;;;;;;;5050239;28;20201;-29
2023/01/25 14:18:27;;;;;;;14.90;7.27;;;;;;;;;;5050890;28;20221;-30
2023/01/25 14:21:09;;;;;;;11.33;6.53;;;;;;;;;;5051493;28;20190;-31
2023/01/25 14:23:38;;;;;;;14.63;7.20;;;;;;;;;;5049599;28;20348;-31
2023/01/25 14:26:17;;;;;;;13.80;6.63;;;;;;;;;;5051686;28;20206;-31
2023/01/25 14:28:45;;;;;;;14.40;7.03;;;;;;;;;;5052872;28;20259;-30
2023/01/25 14:31:18;;;;;;;12.03;6.80;;;;;;;;;;5052902;28;20218;-29
2023/01/25 14:33:47;;;;;;;13.10;7.10;;;;;;;;;;5051619;28;20351;-28
2023/01/25 14:36:14;;;;;;;12.70;6.70;;;;;;;;;;5051387;28;20297;-28
2023/01/25 14:38:43;;;;;;;14.20;7.50;;;;;;;;;;5049808;28;20222;-29
2023/01/25 14:41:13;;;;;;;14.30;7.97;;;;;;;;;;5051229;28;20210;-31
2023/01/25 14:43:44;;;;;;;15.30;7.27;;;;;;;;;;5050843;28;20277;-28
2023/01/25 14:46:21;;;;;;;13.07;7.57;;;;;;;;;;5049707;28;20190;-30
2023/01/25 14:48:48;;;;;;;11.07;6.97;;;;;;;;;;5051283;28;20209;-29
2023/01/25 14:51:17;;;;;;;13.23;7.13;;;;;;;;;;5050292;28;20213;-28
2023/01/25 15:06:45;;;;;;;13.97;7.30;;;;;;;;;;5052574;28;20220;-28
2023/01/25 15:09:27;;;;;;;14.20;7.77;;;;;;;;;;5053946;28;20186;-27
2023/01/25 15:11:59;;;;;;;18.47;8.73;;;;;;;;;;5053963;28;20212;-27
2023/01/25 15:27:19;;;;;;;8.00;5.57;;;;;;;;;;5033652;28;20577;-29
2023/01/25 15:29:46;;;;;;;11.07;5.90;;;;;;;;;;5037650;28;20226;-30
2023/01/25 15:32:18;;;;;;;8.73;4.93;;;;;;;;;;5037851;28;20244;-29
2023/01/25 15:47:40;;;;;;;7.43;4.83;;;;;;;;;;5035484;28;20225;-30
2023/01/25 15:50:17;;;;;;;9.13;5.27;;;;;;;;;;5036829;28;20209;-25
2023/01/25 16:05:36;;;;;;;7.90;4.83;;;;;;;;;;5055116;28;20282;-27
2023/01/25 16:08:03;;;;;;;7.17;4.73;;;;;;;;;;5056757;28;20225;-28
2023/01/25 16:10:31;;;;;;;8.33;5.27;;;;;;;;;;5056467;28;20205;-27
2023/01/25 16:25:51;;;;;;;9.80;4.77;;;;;;;;;;5034729;28;20777;-30
2023/01/25 16:28:18;;;;;;;9.33;5.17;;;;;;;;;;5036357;28;20211;-29
2023/01/25 16:30:45;;;;;;;8.00;4.53;;;;;;;;;;5036550;28;20550;-27
2023/01/25 16:33:13;;;;;;;10.23;5.67;;;;;;;;;;5035452;28;20226;-33
2023/01/25 16:35:40;;;;;;;9.07;4.83;;;;;;;;;;5033507;28;20249;-27
2023/01/25 16:38:07;;;;;;;8.77;5.40;;;;;;;;;;5032820;28;20203;-28
2023/01/25 16:40:37;;;;;;;7.97;4.87;;;;;;;;;;5033544;28;20598;-28
2023/01/25 16:43:06;;;;;;;12.63;6.60;;;;;;;;;;5033708;28;20231;-31
2023/01/25 16:45:33;;;;;;;8.73;5.10;;;;;;;;;;5032757;28;20211;-27
2023/01/25 16:48:00;;;;;;;12.33;7.30;;;;;;;;;;5033538;28;20669;-29
2023/01/25 16:50:28;;;;;;;9.60;5.83;;;;;;;;;;5033617;28;20203;-31
2023/01/25 16:52:55;;;;;;;9.23;5.17;;;;;;;;;;5032230;28;20317;-30
2023/01/25 16:55:22;;;;;;;8.97;4.77;;;;;;;;;;5033099;28;20206;-32
2023/01/25 16:57:50;;;;;;;8.80;5.30;;;;;;;;;;5034134;28;20212;-30
2023/01/25 17:00:19;;;;;;;12.23;6.07;;;;;;;;;;5032359;28;20222;-30